createdAt,value
2023-03-23T15:58:47.371Z,0.80
2023-03-23T16:01:56.046Z,0.70
2023-03-23T16:05:05.652Z,0.90
2023-03-23T16:08:14.727Z,0.63
2023-03-23T16:11:27.473Z,0.80
2023-03-23T16:14:35.680Z,0.70
2023-03-23T16:17:45.267Z,0.80
2023-03-23T16:20:53.770Z,0.80
2023-03-23T16:24:02.290Z,0.80
2023-03-23T16:27:13.286Z,0.80
2023-03-23T16:30:25.518Z,0.80
2023-03-23T16:33:34.434Z,0.77
2023-03-23T16:36:42.936Z,1.00
2023-03-23T16:39:51.247Z,0.70
2023-03-23T16:43:01.078Z,0.90
2023-03-23T16:46:13.371Z,1.13
2023-03-23T16:49:21.755Z,1.27
2023-03-23T16:52:29.913Z,1.30
2023-03-23T16:55:39.915Z,1.30
2023-03-23T16:58:49.486Z,2.40
2023-03-23T17:02:03.300Z,3.53
2023-03-23T17:05:13.416Z,2.03
2023-03-23T17:08:22.687Z,1.67
2023-03-23T17:11:31.944Z,1.10
2023-03-23T17:14:41.445Z,1.23
2023-03-23T17:17:49.818Z,1.20
2023-03-23T17:20:58.043Z,1.13
2023-03-23T17:24:06.751Z,1.20
2023-03-23T17:27:15.504Z,1.40
2023-03-23T17:30:24.946Z,1.47
2023-03-23T17:33:34.570Z,1.40
2023-03-23T17:36:42.841Z,1.43
2023-03-23T17:39:51.267Z,1.63
2023-03-23T17:42:59.497Z,2.17
2023-03-23T17:46:11.060Z,2.13
2023-03-23T17:49:20.026Z,2.07
2023-03-23T17:52:28.172Z,2.30
2023-03-23T17:55:37.669Z,6.37
2023-03-23T17:58:45.796Z,6.30
2023-03-23T18:01:55.386Z,10.87
2023-03-23T18:05:03.581Z,8.63
2023-03-23T18:08:12.179Z,3.47
2023-03-23T18:11:20.251Z,1.40
2023-03-23T18:14:28.624Z,1.00
2023-03-23T18:17:38.356Z,1.30
2023-03-23T18:20:47.881Z,1.40
2023-03-23T18:23:59.522Z,1.20
2023-03-23T18:27:08.283Z,1.60
2023-03-23T18:30:16.682Z,1.20
2023-03-23T18:33:26.354Z,1.47
2023-03-23T18:36:35.013Z,1.20
2023-03-23T18:39:43.326Z,1.57
2023-03-23T18:42:51.374Z,1.80
2023-03-23T18:45:59.879Z,2.03
2023-03-23T18:49:09.467Z,1.60
2023-03-23T18:52:17.739Z,1.57
2023-03-23T18:55:26.115Z,1.50
2023-03-23T18:58:34.539Z,1.40
2023-03-23T19:01:42.773Z,1.70
2023-03-23T19:04:52.572Z,1.60
2023-03-23T19:08:01.238Z,1.30
2023-03-23T19:11:09.570Z,1.50
2023-03-23T19:14:19.421Z,1.40
2023-03-23T19:17:27.689Z,1.73
2023-03-23T19:21:09.479Z,1.70
2023-03-23T19:24:07.779Z,1.80
2023-03-23T19:27:16.606Z,2.20
2023-03-23T19:30:25.042Z,2.00
2023-03-23T19:33:33.047Z,1.93
2023-03-23T19:36:50.273Z,1.70
2023-03-23T19:40:22.678Z,1.67
2023-03-23T19:43:36.277Z,2.13
2023-03-23T19:46:46.653Z,2.20
2023-03-23T19:49:56.679Z,1.50
2023-03-23T19:53:06.072Z,1.40
2023-03-23T19:56:17.495Z,1.40
2023-03-23T19:59:26.404Z,1.30
2023-03-23T20:02:35.526Z,2.50
2023-03-23T20:05:44.039Z,2.23
2023-03-23T20:08:53.676Z,2.20
2023-03-23T20:12:01.777Z,1.70
2023-03-23T20:15:10.812Z,1.80
2023-03-23T20:18:18.976Z,2.00
2023-03-23T20:21:27.229Z,2.07
2023-03-23T20:24:38.041Z,2.20
2023-03-23T20:27:46.755Z,2.17
2023-03-23T20:31:18.902Z,1.97
2023-03-23T20:34:31.441Z,2.00
2023-03-23T20:37:41.275Z,1.70
2023-03-23T20:40:51.268Z,2.90
2023-03-23T20:43:59.719Z,1.80
2023-03-23T20:47:10.382Z,1.87
2023-03-23T20:50:18.630Z,2.40
2023-03-23T20:53:29.545Z,2.33
2023-03-23T20:56:40.797Z,2.00
2023-03-23T20:59:49.213Z,2.00
2023-03-23T21:02:57.411Z,2.13
2023-03-23T21:06:07.557Z,1.70
2023-03-23T21:09:17.261Z,1.80
2023-03-23T21:12:27.202Z,1.87
2023-03-23T21:15:35.613Z,1.80
2023-03-23T21:18:43.873Z,2.03
2023-03-23T21:21:55.383Z,1.80
2023-03-23T21:25:04.790Z,1.53
2023-03-23T21:28:15.307Z,1.50
2023-03-23T21:31:25.525Z,1.43
2023-03-23T21:34:34.115Z,1.43
2023-03-23T21:37:42.315Z,1.70
2023-03-23T21:40:50.569Z,1.60
2023-03-23T21:44:00.227Z,1.57
2023-03-23T21:47:09.092Z,1.30
2023-03-23T21:50:18.081Z,1.60
2023-03-23T21:53:27.999Z,1.87
2023-03-23T21:56:36.868Z,1.50
2023-03-23T21:59:47.221Z,1.40
2023-03-23T22:02:56.010Z,1.63
2023-03-23T22:06:12.177Z,1.77
2023-03-23T22:09:20.397Z,1.43
2023-03-23T22:12:28.701Z,1.83
2023-03-23T22:15:38.200Z,1.50
2023-03-23T22:18:48.069Z,1.80
2023-03-23T22:21:56.358Z,1.40
2023-03-23T22:25:06.008Z,1.50
2023-03-23T22:28:14.485Z,1.60
2023-03-23T22:31:27.833Z,1.30
2023-03-23T22:34:36.062Z,1.70
2023-03-23T22:37:44.218Z,1.60
2023-03-23T22:41:01.127Z,1.80
2023-03-23T22:44:14.023Z,1.53
2023-03-23T22:47:23.793Z,1.90
2023-03-23T22:50:31.905Z,1.70
2023-03-23T22:53:40.483Z,1.60
2023-03-23T22:56:48.965Z,1.83
2023-03-23T22:59:58.102Z,1.60
2023-03-23T23:03:08.753Z,1.60
2023-03-23T23:06:19.208Z,1.73
2023-03-23T23:09:27.472Z,1.83
2023-03-23T23:12:36.476Z,2.00
2023-03-23T23:15:47.985Z,1.93
2023-03-23T23:18:57.911Z,1.60
2023-03-23T23:22:18.527Z,1.97
2023-03-23T23:25:28.449Z,1.80
2023-03-23T23:28:37.242Z,1.73
2023-03-23T23:31:45.861Z,1.97
2023-03-23T23:34:55.404Z,2.20
2023-03-23T23:38:04.286Z,1.70
2023-03-23T23:41:12.794Z,1.90
2023-03-23T23:44:21.055Z,1.90
2023-03-23T23:47:29.513Z,2.10
2023-03-23T23:50:39.111Z,2.00
2023-03-23T23:53:53.185Z,2.27
2023-03-23T23:57:02.084Z,2.50
